Map

Track Data

SID SEASON NUMBER BASIN SUBBASIN NAME ISO_TIME NATURE LAT LON WMO_WIND WMO_PRES WMO_AGENCY TRACK_TYPE DIST2LAND LANDFALL IFLAG USA_AGENCY USA_ATCF_ID USA_LAT USA_LON USA_RECORD USA_STATUS USA_WIND USA_PRES USA_SSHS USA_R34_NE USA_R34_SE USA_R34_SW USA_R34_NW USA_R50_NE USA_R50_SE USA_R50_SW USA_R50_NW USA_R64_NE USA_R64_SE USA_R64_SW USA_R64_NW USA_POCI USA_ROCI USA_RMW USA_EYE TOKYO_LAT TOKYO_LON TOKYO_GRADE TOKYO_WIND TOKYO_PRES TOKYO_R50_DIR TOKYO_R50_LONG TOKYO_R50_SHORT TOKYO_R30_DIR TOKYO_R30_LONG TOKYO_R30_SHORT TOKYO_LAND CMA_LAT CMA_LON CMA_CAT CMA_WIND CMA_PRES HKO_LAT HKO_LON HKO_CAT HKO_WIND HKO_PRES NEWDELHI_LAT NEWDELHI_LON NEWDELHI_GRADE NEWDELHI_WIND NEWDELHI_PRES NEWDELHI_CI NEWDELHI_DP NEWDELHI_POCI REUNION_LAT REUNION_LON REUNION_TYPE REUNION_WIND REUNION_PRES REUNION_TNUM REUNION_CI REUNION_RMW REUNION_R34_NE REUNION_R34_SE REUNION_R34_SW REUNION_R34_NW REUNION_R50_NE REUNION_R50_SE REUNION_R50_SW REUNION_R50_NW REUNION_R64_NE REUNION_R64_SE REUNION_R64_SW REUNION_R64_NW BOM_LAT BOM_LON BOM_TYPE BOM_WIND BOM_PRES BOM_TNUM BOM_CI BOM_RMW BOM_R34_NE BOM_R34_SE BOM_R34_SW BOM_R34_NW BOM_R50_NE BOM_R50_SE BOM_R50_SW BOM_R50_NW BOM_R64_NE BOM_R64_SE BOM_R64_SW BOM_R64_NW BOM_ROCI BOM_POCI BOM_EYE BOM_POS_METHOD BOM_PRES_METHOD NADI_LAT NADI_LON NADI_CAT NADI_WIND NADI_PRES WELLINGTON_LAT WELLINGTON_LON WELLINGTON_WIND WELLINGTON_PRES DS824_LAT DS824_LON DS824_STAGE DS824_WIND DS824_PRES TD9636_LAT TD9636_LON TD9636_STAGE TD9636_WIND TD9636_PRES TD9635_LAT TD9635_LON TD9635_WIND TD9635_PRES TD9635_ROCI NEUMANN_LAT NEUMANN_LON NEUMANN_CLASS NEUMANN_WIND NEUMANN_PRES MLC_LAT MLC_LON MLC_CLASS MLC_WIND MLC_PRES USA_GUST BOM_GUST BOM_GUST_PER REUNION_GUST REUNION_GUST_PER USA_SEAHGT USA_SEARAD_NE USA_SEARAD_SE USA_SEARAD_SW USA_SEARAD_NW STORM_SPEED STORM_DIR
1922029S17043 1922 10 SI MM NOT_NAMED 1922-01-28 12:00:00 NR -16.5000 42.6000 main 177 164 __________O___ -1 -16.5000 42.6000 2 5 195
1922029S17043 1922 10 SI MM NOT_NAMED 1922-01-28 15:00:00 NR -16.7391 42.5454 main 173 158 __________P___ -1 -16.7391 42.5454 2 5 192
1922029S17043 1922 10 SI MM NOT_NAMED 1922-01-28 18:00:00 NR -16.9825 42.4926 main 158 152 __________P___ -1 -16.9825 42.4926 2 5 191
1922029S17043 1922 10 SI MM NOT_NAMED 1922-01-28 21:00:00 NR -17.2347 42.4435 main 162 159 __________P___ -1 -17.2347 42.4435 2 5 190
1922029S17043 1922 10 SI MM NOT_NAMED 1922-01-29 00:00:00 TS -17.5000 42.4000 main 159 159 _________OO___ -1 -17.5000 42.4000 TC 35 -17.5000 42.4000 2 6 188
1922029S17043 1922 10 SI MM NOT_NAMED 1922-01-29 03:00:00 TS -17.7877 42.3558 main 162 162 _________PP___ -1 -17.8000 42.3401 TC 35 -17.7816 42.3637 2 6 187
1922029S17043 1922 10 SI MM NOT_NAMED 1922-01-29 06:00:00 TS -18.0871 42.3200 main 179 179 _________OP___ -1 -18.1000 42.3000 TC 35 -18.0775 42.3350 2 6 186
1922029S17043 1922 10 SI MM NOT_NAMED 1922-01-29 09:00:00 TS -18.3923 42.3031 main 179 179 _________PP___ -1 -18.4000 42.2925 TC 35 -18.3847 42.3138 2 6 181
1922029S17043 1922 10 SI MM NOT_NAMED 1922-01-29 12:00:00 TS -18.7000 42.3000 main 182 182 _________OO___ -1 -18.7000 42.3000 TC 35 -18.7000 42.3000 2 6 182
1922029S17043 1922 10 SI MM NOT_NAMED 1922-01-29 15:00:00 TS -19.0112 42.2924 main 191 191 _________PP___ -1 -18.9925 42.3000 TC 35 -19.0300 42.2847 2 6 182
1922029S17043 1922 10 SI MM NOT_NAMED 1922-01-29 18:00:00 TS -19.3325 42.2888 main 200 200 _________OP___ -1 -19.3000 42.3000 TC 35 -19.3650 42.2776 2 7 0
1922029S17043 1922 10 SI MM NOT_NAMED 1922-01-29 21:00:00 TS -19.6750 42.2871 main 207 189 _________PP___ -1 -19.6575 42.2925 TC 35 -19.6925 42.2816 2 7 178
1922029S17043 1922 10 SI MM NOT_NAMED 1922-01-30 00:00:00 TS -20.0000 42.3000 main 189 175 _________OO___ -1 -20.0000 42.3000 TC 35 -20.0000 42.3000 2 6 177
1922029S17043 1922 10 SI MM NOT_NAMED 1922-01-30 03:00:00 TS -20.2703 42.3330 main 175 152 _________PP___ -1 -20.2650 42.3425 TC 35 -20.2756 42.3235 2 5 172
1922029S17043 1922 10 SI MM NOT_NAMED 1922-01-30 06:00:00 TS -20.5150 42.3813 main 152 138 _________OP___ -1 -20.5000 42.4000 TC 35 -20.5299 42.3626 2 5 170
1922029S17043 1922 10 SI MM NOT_NAMED 1922-01-30 09:00:00 TS -20.7597 42.4315 main 132 112 _________PP___ -1 -20.7500 42.4426 TC 35 -20.7693 42.4204 2 5 167
1922029S17043 1922 10 SI MM NOT_NAMED 1922-01-30 12:00:00 TS -21.0000 42.5000 main 112 105 _________OO___ -1 -21.0000 42.5000 TC 35 -21.0000 42.5000 2 5 167
1922029S17043 1922 10 SI MM NOT_NAMED 1922-01-30 15:00:00 TS -21.2362 42.5522 main 95 89 _________PP___ -1 -21.2575 42.5850 TC 35 -21.2150 42.5194 2 5 165
1922029S17043 1922 10 SI MM NOT_NAMED 1922-01-30 18:00:00 TS -21.4629 42.6361 main 89 70 _________OP___ -1 -21.5000 42.7000 TC 35 -21.4258 42.5722 2 5 158
1922029S17043 1922 10 SI MM NOT_NAMED 1922-01-30 21:00:00 TS -21.6629 42.7447 main 70 32 _________PP___ -1 -21.6771 42.7756 TC 35 -21.6488 42.7138 2 6 142
1922029S17043 1922 10 SI MM NOT_NAMED 1922-01-31 00:00:00 TS -21.9000 43.0000 main 32 0 _________OO___ -1 -21.9000 43.0000 TC 35 -21.9000 43.0000 2 9 130
1922029S17043 1922 10 SI MM NOT_NAMED 1922-01-31 03:00:00 TS -22.2616 43.5190 main 0 0 _________PP___ -1 -22.2927 43.5169 TC 35 -22.2306 43.5210 2 13 124
1922029S17043 1922 10 SI MM NOT_NAMED 1922-01-31 06:00:00 TS -22.6414 44.1921 main 0 0 _________OP___ -1 -22.7000 44.2000 TC 35 -22.5827 44.1841 2 15 118
1922029S17043 1922 10 SI MM NOT_NAMED 1922-01-31 09:00:00 TS -22.9529 44.9103 main 0 0 _________PP___ -1 -22.9877 44.9151 TC 35 -22.9181 44.9055 2 14 113
1922029S17043 1922 10 SI MM NOT_NAMED 1922-01-31 12:00:00 TS -23.2000 45.6000 main 0 0 _________OO___ -1 -23.2000 45.6000 TC 35 -23.2000 45.6000 2 12 111
1922029S17043 1922 10 SI MM NOT_NAMED 1922-01-31 15:00:00 TS -23.3872 46.1652 main 0 0 _________PP___ -1 -23.3720 46.1303 TC 35 -23.4025 46.2001 2 10 108
1922029S17043 1922 10 SI MM NOT_NAMED 1922-01-31 18:00:00 TS -23.5193 46.6573 main 0 0 _________OP___ -1 -23.5000 46.6000 TC 35 -23.5386 46.7145 2 9 105
1922029S17043 1922 10 SI MM NOT_NAMED 1922-01-31 21:00:00 TS -23.6180 47.1307 main 0 0 _________PP___ -1 -23.6055 47.0898 TC 35 -23.6306 47.1716 2 9 102
1922029S17043 1922 10 SI MM NOT_NAMED 1922-02-01 00:00:00 TS -23.7000 47.6000 main 10 _________OO___ -1 -23.7000 47.6000 TC 35 -23.7000 47.6000 2 9 101

About IBTrACS Database

This database is a web-friendly format of International Best Track Archive for Climate Stewardship (IBTrACS), a global best track data archive curated by NOAA dating back to 1842.

Updated: 2021-10-19